createdAt,value
2022-09-11T00:03:00.551Z,1.67
2022-09-11T00:06:04.018Z,1.52
2022-09-11T00:09:06.786Z,1.55
2022-09-11T00:12:08.184Z,1.70
2022-09-11T00:15:10.319Z,1.60
2022-09-11T00:21:15.804Z,1.50
2022-09-11T00:24:17.598Z,1.40
2022-09-11T00:27:19.133Z,1.63
2022-09-11T00:30:20.528Z,1.40
2022-09-11T00:33:22.768Z,1.95
2022-09-11T00:36:27.508Z,1.33
2022-09-11T00:39:29.101Z,1.42
2022-09-11T00:42:30.555Z,1.52
2022-09-11T00:45:32.211Z,1.63
2022-09-11T00:48:36.725Z,1.30
2022-09-11T00:51:38.750Z,1.60
2022-09-11T00:55:09.487Z,1.55
2022-09-11T00:58:17.457Z,1.60
2022-09-11T01:01:19.001Z,1.63
2022-09-11T01:04:21.888Z,1.55
2022-09-11T01:07:25.851Z,1.48
2022-09-11T01:10:38.192Z,1.50
2022-09-11T01:14:01.277Z,1.60
2022-09-11T01:17:19.334Z,1.50
2022-09-11T01:20:32.953Z,1.50
2022-09-11T01:23:55.028Z,1.52
2022-09-11T01:27:24.741Z,1.63
2022-09-11T01:30:37.475Z,1.50
2022-09-11T01:33:50.854Z,1.48
2022-09-11T01:37:00.918Z,1.30
2022-09-11T01:40:10.795Z,1.60
2022-09-11T01:43:20.327Z,1.38
2022-09-11T01:46:27.154Z,1.55
2022-09-11T01:49:39.990Z,1.80
2022-09-11T01:52:53.985Z,1.48
2022-09-11T01:56:16.547Z,1.60
2022-09-11T01:59:30.437Z,1.58
2022-09-11T02:02:40.348Z,1.60
2022-09-11T02:05:58.946Z,1.60
2022-09-11T02:09:06.025Z,1.40
2022-09-11T02:12:11.301Z,1.70
2022-09-11T02:15:15.736Z,1.45
2022-09-11T02:18:25.235Z,1.60
2022-09-11T02:21:28.622Z,1.60
2022-09-11T02:27:31.929Z,1.63
2022-09-11T02:30:35.013Z,1.60
2022-09-11T02:33:37.636Z,1.50
2022-09-11T02:36:48.798Z,1.70
2022-09-11T02:40:04.770Z,1.58
2022-09-11T02:43:13.590Z,1.63
2022-09-11T02:46:34.389Z,1.58
2022-09-11T02:50:02.493Z,1.50
2022-09-11T02:53:17.510Z,1.60
2022-09-11T02:56:47.809Z,1.70
2022-09-11T02:59:54.418Z,1.70
2022-09-11T03:02:56.389Z,1.70
2022-09-11T03:05:58.001Z,1.55
2022-09-11T03:08:59.432Z,1.60
2022-09-11T03:12:03.445Z,1.70
2022-09-11T03:15:10.455Z,1.60
2022-09-11T03:18:15.571Z,1.58
2022-09-11T03:21:17.000Z,1.80
2022-09-11T03:24:18.609Z,1.90
2022-09-11T03:27:21.489Z,1.48
2022-09-11T03:33:24.358Z,1.73
2022-09-11T03:36:25.938Z,1.80
2022-09-11T03:39:28.763Z,1.95
2022-09-11T03:42:33.383Z,1.90
2022-09-11T03:45:34.947Z,1.70
2022-09-11T03:48:36.586Z,1.60
2022-09-11T03:51:37.995Z,1.65
2022-09-11T03:54:39.746Z,1.70
2022-09-11T03:57:41.376Z,1.90
2022-09-11T04:00:44.358Z,1.60
2022-09-11T04:03:46.401Z,1.77
2022-09-11T04:06:56.707Z,1.60
2022-09-11T04:13:00.096Z,2.10
2022-09-11T04:16:16.665Z,1.90
2022-09-11T04:19:21.625Z,1.60
2022-09-11T04:22:24.281Z,2.00
2022-09-11T04:25:26.296Z,1.88
2022-09-11T04:28:29.502Z,1.80
2022-09-11T04:31:31.009Z,1.67
2022-09-11T04:34:33.337Z,1.90
2022-09-11T04:37:35.445Z,1.55
2022-09-11T04:40:37.720Z,1.95
2022-09-11T04:43:40.786Z,1.80
2022-09-11T04:46:45.178Z,2.25
2022-09-11T04:49:46.778Z,2.10
2022-09-11T04:52:49.334Z,2.10
2022-09-11T04:55:51.309Z,2.00
2022-09-11T04:58:57.341Z,1.83
2022-09-11T05:02:00.173Z,2.08
2022-09-11T05:05:03.303Z,2.08
2022-09-11T05:08:06.353Z,2.10
2022-09-11T05:11:11.820Z,2.03
2022-09-11T05:14:13.281Z,1.98
2022-09-11T05:17:17.074Z,2.10
2022-09-11T05:20:18.762Z,2.08
2022-09-11T05:23:20.276Z,1.90
2022-09-11T05:26:23.797Z,2.03
2022-09-11T05:29:32.705Z,2.30
2022-09-11T05:32:43.853Z,1.90
2022-09-11T05:35:46.822Z,1.90
2022-09-11T05:38:49.153Z,2.10
2022-09-11T05:41:52.227Z,2.60
2022-09-11T05:44:53.695Z,2.00
2022-09-11T05:47:56.864Z,1.92
2022-09-11T05:51:07.163Z,2.30
2022-09-11T05:54:08.950Z,2.10
2022-09-11T05:57:10.560Z,2.08
2022-09-11T06:00:14.183Z,2.47
2022-09-11T06:03:26.411Z,2.10
2022-09-11T06:06:29.375Z,2.10
2022-09-11T06:09:30.805Z,2.28
2022-09-11T06:12:32.300Z,2.10
2022-09-11T06:15:46.137Z,1.95
2022-09-11T06:18:50.168Z,2.10
2022-09-11T06:21:54.202Z,2.17
2022-09-11T06:25:08.006Z,2.17
2022-09-11T06:31:16.311Z,2.70
2022-09-11T06:34:22.259Z,2.10
2022-09-11T06:37:24.573Z,2.08
2022-09-11T06:40:26.529Z,2.40
2022-09-11T06:43:28.911Z,2.60
2022-09-11T06:46:30.349Z,2.20
2022-09-11T06:49:33.506Z,2.30
2022-09-11T06:52:54.065Z,2.22
2022-09-11T06:56:00.462Z,2.15
2022-09-11T06:59:03.659Z,2.20
2022-09-11T07:02:07.110Z,2.30
2022-09-11T07:05:10.774Z,2.13
2022-09-11T07:08:13.472Z,2.58
2022-09-11T07:11:17.736Z,2.40
2022-09-11T07:14:29.378Z,2.47
2022-09-11T07:17:41.181Z,2.60
2022-09-11T07:20:45.066Z,2.53
2022-09-11T07:23:49.457Z,2.60
2022-09-11T07:26:51.116Z,2.80
2022-09-11T07:30:03.153Z,2.85
2022-09-11T07:33:08.569Z,2.60
2022-09-11T07:36:14.497Z,2.97
2022-09-11T07:39:18.042Z,2.70
2022-09-11T07:42:29.044Z,2.50
2022-09-11T07:45:32.943Z,2.65
2022-09-11T07:48:34.542Z,2.33
2022-09-11T07:51:37.654Z,2.60
2022-09-11T07:54:41.276Z,2.70
2022-09-11T07:57:42.851Z,2.88
2022-09-11T08:00:45.296Z,2.50
2022-09-11T08:03:58.391Z,2.72
2022-09-11T08:07:01.749Z,2.75
2022-09-11T08:10:26.573Z,2.75
2022-09-11T08:13:30.343Z,2.95
2022-09-11T08:16:32.540Z,2.92
2022-09-11T08:19:34.997Z,3.20
2022-09-11T08:25:39.883Z,3.13
2022-09-11T08:28:44.872Z,3.72
2022-09-11T08:31:46.689Z,4.38
2022-09-11T08:34:48.870Z,4.18
2022-09-11T08:37:54.731Z,4.53
2022-09-11T08:40:59.041Z,4.60
2022-09-11T08:44:09.853Z,4.20
2022-09-11T08:47:35.476Z,4.55
2022-09-11T08:50:41.524Z,4.32
2022-09-11T08:53:45.657Z,4.43
2022-09-11T08:56:52.029Z,4.53
2022-09-11T09:00:18.685Z,4.22
2022-09-11T09:03:55.497Z,4.68
2022-09-11T09:07:13.138Z,5.15
2022-09-11T09:10:33.390Z,4.93
2022-09-11T09:14:06.771Z,4.80
2022-09-11T09:17:16.908Z,4.53
2022-09-11T09:20:27.128Z,4.63
2022-09-11T09:23:37.206Z,4.30
2022-09-11T09:26:40.644Z,4.57
2022-09-11T09:29:47.097Z,3.50
2022-09-11T09:32:58.502Z,4.75
2022-09-11T09:36:13.278Z,4.90
2022-09-11T09:39:17.432Z,5.28
2022-09-11T09:42:47.495Z,5.53
2022-09-11T09:46:11.887Z,5.45
2022-09-11T09:49:27.761Z,5.32
2022-09-11T09:52:35.927Z,5.68
2022-09-11T09:55:40.455Z,5.75
2022-09-11T09:58:54.927Z,5.15
2022-09-11T10:01:56.588Z,5.10
2022-09-11T10:05:13.963Z,5.47
2022-09-11T10:08:33.509Z,5.40
2022-09-11T10:11:35.109Z,5.85
2022-09-11T10:14:58.355Z,5.38
2022-09-11T10:18:28.965Z,5.57
2022-09-11T10:21:35.710Z,5.10
2022-09-11T10:24:37.137Z,4.90
2022-09-11T10:27:59.107Z,4.60
2022-09-11T10:31:03.567Z,5.13
2022-09-11T10:34:06.251Z,4.85
2022-09-11T10:37:16.523Z,4.97
2022-09-11T10:40:23.089Z,4.57
2022-09-11T10:43:35.153Z,4.70
2022-09-11T10:49:43.450Z,4.32
2022-09-11T10:53:09.775Z,4.90
2022-09-11T10:56:12.111Z,4.47
2022-09-11T10:59:18.945Z,4.47
2022-09-11T11:02:33.206Z,5.00
2022-09-11T11:05:59.939Z,4.88
2022-09-11T11:09:16.546Z,4.75
2022-09-11T11:12:41.437Z,5.10
2022-09-11T11:15:59.407Z,4.55
2022-09-11T11:19:07.758Z,4.57
2022-09-11T11:22:34.321Z,4.32
2022-09-11T11:26:04.405Z,4.22
2022-09-11T11:29:22.518Z,4.65
2022-09-11T11:32:48.869Z,4.28
2022-09-11T11:36:16.804Z,3.78
2022-09-11T11:40:02.655Z,4.03
2022-09-11T11:43:07.729Z,4.32
2022-09-11T11:46:18.391Z,4.45
2022-09-11T11:49:46.576Z,4.18
2022-09-11T11:53:06.234Z,3.85
2022-09-11T11:56:24.109Z,3.05
2022-09-11T11:59:36.809Z,3.15
2022-09-11T12:02:45.605Z,3.60
2022-09-11T12:05:47.134Z,3.35
2022-09-11T12:08:49.136Z,3.67
2022-09-11T12:11:53.234Z,3.60
2022-09-11T12:15:01.104Z,3.40
2022-09-11T12:18:23.840Z,3.63
2022-09-11T12:21:25.213Z,3.30
2022-09-11T12:24:52.293Z,3.28
2022-09-11T12:28:12.786Z,3.08
2022-09-11T12:31:16.394Z,2.92
2022-09-11T12:34:46.359Z,3.03
2022-09-11T12:37:56.938Z,2.95
2022-09-11T12:41:07.295Z,2.80
2022-09-11T12:44:30.693Z,3.13
2022-09-11T12:47:40.123Z,3.10
2022-09-11T12:50:55.711Z,3.17
2022-09-11T12:54:03.982Z,3.03
2022-09-11T12:57:19.741Z,3.50
2022-09-11T13:00:28.158Z,3.15
2022-09-11T13:03:30.233Z,2.78
2022-09-11T13:06:43.043Z,2.90
2022-09-11T13:09:49.361Z,2.80
2022-09-11T13:12:53.244Z,2.90
2022-09-11T13:15:58.271Z,2.80
2022-09-11T13:19:20.757Z,2.80
2022-09-11T13:22:28.562Z,2.67
2022-09-11T13:25:33.978Z,2.78
2022-09-11T13:28:47.824Z,2.53
2022-09-11T13:31:49.699Z,2.70
2022-09-11T13:38:02.606Z,2.75
2022-09-11T13:41:13.725Z,3.20
2022-09-11T13:44:42.681Z,2.80
2022-09-11T13:47:44.189Z,2.67
2022-09-11T13:50:45.613Z,2.60
2022-09-11T13:53:58.307Z,2.70
2022-09-11T13:56:59.654Z,2.50
2022-09-11T14:00:01.815Z,2.65
2022-09-11T14:03:05.433Z,2.70
2022-09-11T14:06:14.942Z,2.70
2022-09-11T14:09:21.833Z,2.55
2022-09-11T14:12:24.772Z,2.22
2022-09-11T14:15:37.812Z,2.65
2022-09-11T14:18:45.378Z,2.75
2022-09-11T14:21:49.184Z,2.90
2022-09-11T14:25:19.497Z,2.88
2022-09-11T14:28:56.838Z,2.80
2022-09-11T14:32:33.777Z,2.50
2022-09-11T14:35:36.088Z,2.60
2022-09-11T14:38:38.191Z,2.60
2022-09-11T14:41:42.597Z,2.70
2022-09-11T14:44:44.333Z,2.50
2022-09-11T14:47:46.730Z,2.30
2022-09-11T14:50:48.571Z,2.70
2022-09-11T14:56:52.471Z,2.63
2022-09-11T14:59:54.221Z,2.30
2022-09-11T15:02:56.116Z,2.40
2022-09-11T15:09:01.495Z,2.22
2022-09-11T15:12:04.247Z,2.17
2022-09-11T15:15:06.042Z,2.40
2022-09-11T15:18:08.445Z,2.25
2022-09-11T15:21:09.956Z,2.33
2022-09-11T15:24:11.383Z,2.53
2022-09-11T15:27:12.791Z,2.45
2022-09-11T15:30:14.500Z,2.55
2022-09-11T15:33:16.052Z,2.40
2022-09-11T15:36:18.468Z,2.42
2022-09-11T15:39:21.045Z,2.20
2022-09-11T15:42:22.542Z,2.15
2022-09-11T15:45:24.030Z,2.00
2022-09-11T15:48:28.244Z,2.03
2022-09-11T15:51:29.744Z,2.00
2022-09-11T15:54:31.248Z,2.03
2022-09-11T15:57:34.485Z,1.85
2022-09-11T16:00:36.245Z,2.28
2022-09-11T16:06:42.316Z,2.10
2022-09-11T16:09:44.035Z,2.00
2022-09-11T16:12:47.029Z,2.00
2022-09-11T16:15:49.234Z,2.05
2022-09-11T16:18:50.717Z,1.95
2022-09-11T16:21:53.554Z,2.00
2022-09-11T16:24:54.973Z,1.75
2022-09-11T16:27:57.822Z,2.10
2022-09-11T16:30:59.692Z,1.85
2022-09-11T16:34:04.428Z,1.90
2022-09-11T16:37:05.813Z,1.88
2022-09-11T16:40:08.322Z,1.88
2022-09-11T16:43:09.797Z,2.08
2022-09-11T16:46:13.919Z,1.80
2022-09-11T16:49:17.421Z,1.95
2022-09-11T16:52:19.153Z,1.92
2022-09-11T16:55:21.263Z,2.05
2022-09-11T16:58:22.853Z,1.83
2022-09-11T17:01:26.532Z,1.90
2022-09-11T17:04:28.171Z,1.98
2022-09-11T17:07:30.266Z,2.10
2022-09-11T17:10:31.705Z,1.90
2022-09-11T17:13:33.216Z,1.95
2022-09-11T17:16:35.653Z,2.03
2022-09-11T17:19:37.091Z,2.00
2022-09-11T17:22:39.607Z,2.10
2022-09-11T17:25:41.666Z,2.25
2022-09-11T17:28:47.190Z,2.20
2022-09-11T17:31:48.752Z,2.17
2022-09-11T17:34:51.450Z,2.20
2022-09-11T17:37:52.915Z,2.58
2022-09-11T17:40:58.926Z,2.50
2022-09-11T17:44:00.514Z,2.30
2022-09-11T17:47:02.449Z,2.55
2022-09-11T17:50:04.642Z,2.30
2022-09-11T17:53:06.177Z,2.50
2022-09-11T17:56:14.473Z,2.67
2022-09-11T17:59:16.004Z,2.40
2022-09-11T18:02:19.360Z,3.00
2022-09-11T18:05:21.081Z,3.20
2022-09-11T18:08:23.570Z,2.80
2022-09-11T18:11:25.138Z,2.60
2022-09-11T18:14:27.743Z,2.70
2022-09-11T18:17:29.869Z,2.60
2022-09-11T18:23:32.712Z,2.67
2022-09-11T18:26:37.109Z,2.85
2022-09-11T18:29:39.938Z,2.88
2022-09-11T18:32:41.651Z,3.10
2022-09-11T18:35:44.158Z,3.30
2022-09-11T18:38:50.521Z,3.20
2022-09-11T18:41:55.216Z,3.10
2022-09-11T18:44:56.720Z,2.80
2022-09-11T18:48:00.026Z,2.90
2022-09-11T18:51:09.039Z,2.95
2022-09-11T18:54:15.675Z,2.88
2022-09-11T18:57:17.097Z,3.38
2022-09-11T19:00:20.909Z,2.95
2022-09-11T19:03:22.654Z,3.20
2022-09-11T19:06:26.570Z,3.38
2022-09-11T19:09:29.219Z,3.15
2022-09-11T19:12:30.636Z,3.67
2022-09-11T19:15:32.159Z,3.30
2022-09-11T19:18:35.235Z,3.63
2022-09-11T19:21:38.270Z,3.40
2022-09-11T19:24:39.673Z,3.58
2022-09-11T19:27:41.953Z,3.60
2022-09-11T19:30:43.468Z,3.55
2022-09-11T19:33:45.048Z,3.70
2022-09-11T19:36:46.668Z,3.53
2022-09-11T19:39:51.838Z,3.67
2022-09-11T19:42:53.452Z,3.45
2022-09-11T19:46:06.039Z,3.08
2022-09-11T19:49:07.689Z,3.20
2022-09-11T19:52:10.462Z,3.03
2022-09-11T19:55:12.082Z,3.40
2022-09-11T19:58:13.552Z,3.30
2022-09-11T20:01:17.896Z,3.15
2022-09-11T20:04:19.579Z,3.17
2022-09-11T20:07:21.109Z,3.13
2022-09-11T20:10:27.668Z,3.10
2022-09-11T20:13:29.237Z,3.47
2022-09-11T20:16:31.476Z,3.42
2022-09-11T20:19:32.932Z,3.20
2022-09-11T20:22:34.340Z,3.70
2022-09-11T20:25:36.486Z,3.13
2022-09-11T20:31:47.009Z,3.20
2022-09-11T20:34:49.589Z,3.22
2022-09-11T20:37:52.705Z,3.15
2022-09-11T20:40:54.149Z,3.30
2022-09-11T20:43:57.373Z,3.38
2022-09-11T20:47:00.459Z,3.25
2022-09-11T20:50:02.325Z,3.00
2022-09-11T20:53:03.787Z,3.40
2022-09-11T20:56:10.066Z,3.40
2022-09-11T20:59:11.541Z,3.53
2022-09-11T21:02:14.747Z,3.30
2022-09-11T21:05:16.325Z,3.40
2022-09-11T21:08:17.997Z,3.03
2022-09-11T21:11:19.527Z,3.22
2022-09-11T21:14:21.063Z,3.40
2022-09-11T21:17:22.533Z,3.58
2022-09-11T21:20:24.157Z,3.53
2022-09-11T21:23:25.583Z,3.58
2022-09-11T21:26:28.788Z,3.88
2022-09-11T21:29:30.926Z,3.80
2022-09-11T21:32:33.399Z,3.72
2022-09-11T21:35:36.441Z,4.10
2022-09-11T21:38:38.168Z,4.10
2022-09-11T21:41:39.776Z,3.55
2022-09-11T21:44:41.320Z,4.13
2022-09-11T21:47:42.890Z,4.50
2022-09-11T21:50:44.368Z,4.00
2022-09-11T21:53:47.682Z,4.13
2022-09-11T21:56:49.167Z,3.97
2022-09-11T21:59:50.747Z,3.83
2022-09-11T22:02:52.258Z,4.40
2022-09-11T22:05:53.705Z,4.45
2022-09-11T22:08:56.113Z,4.43
2022-09-11T22:11:59.893Z,4.25
2022-09-11T22:15:02.050Z,4.57
2022-09-11T22:18:04.297Z,4.22
2022-09-11T22:21:07.009Z,4.53
2022-09-11T22:24:08.436Z,4.30
2022-09-11T22:27:10.689Z,4.88
2022-09-11T22:30:13.968Z,4.38
2022-09-11T22:33:15.387Z,5.18
2022-09-11T22:36:23.638Z,4.75
2022-09-11T22:39:25.118Z,4.50
2022-09-11T22:42:26.594Z,4.35
2022-09-11T22:45:28.093Z,4.82
2022-09-11T22:48:29.700Z,4.53
2022-09-11T22:51:32.722Z,4.70
2022-09-11T22:54:35.055Z,5.00
2022-09-11T22:57:37.913Z,4.65
2022-09-11T23:00:40.340Z,4.65
2022-09-11T23:03:42.003Z,4.40
2022-09-11T23:07:02.037Z,4.22
2022-09-11T23:10:03.682Z,4.75
2022-09-11T23:13:05.098Z,4.97
2022-09-11T23:16:15.329Z,4.57
2022-09-11T23:19:16.932Z,4.50
2022-09-11T23:22:18.332Z,5.00
2022-09-11T23:25:19.834Z,4.70
2022-09-11T23:28:21.272Z,4.60
2022-09-11T23:31:26.196Z,4.90
2022-09-11T23:34:27.613Z,5.32
2022-09-11T23:37:29.095Z,4.90
2022-09-11T23:40:33.413Z,4.93
2022-09-11T23:43:35.168Z,4.90
2022-09-11T23:46:36.681Z,4.82
2022-09-11T23:49:38.134Z,4.85
2022-09-11T23:52:39.574Z,4.80
2022-09-11T23:55:42.489Z,4.88
2022-09-11T23:58:45.625Z,4.85
